Terminal Aerodrome Forecast
Issued by NWS

Home | Current Version | Previous Version | Text Only | Print | Product List | Glossary On
Versions: 1 2 3 4 5 6 7 8 9 10 11 12 13 14 15 16 17 18 19 20 21 22 23
000
FTUS41 KBOX 300927 AAA
TAFFMH
TAF AMD
KFMH 300927Z 3009/3106 00000KT 1/4SM SHRA FG OVC003
     FM301600 23008KT 2SM -SHRA BR OVC003
     FM302000 21011G23KT P6SM VCSH OVC008
     FM310300 22010G22KT P6SM -SHRA OVC008
     FM310500 21006KT P6SM -SHRA OVC008=

USA.gov is the U.S. government's official web portal to all federal, state and local government web resources and services.